Time;durP1;ratioP1;P1;durP2;ratioP2;P2;SDS_P1;SDS_P2;PMS_P1;PMS_P2;Temp;Humidity;BMP_temperature;BMP_pressure;BME280_temperature;BME280_humidity;BME280_pressure;Samples;Min_cycle;Max_cycle;Signal;HPM_P1;HPM_P2
2023/09/05 00:00:16;;;;;;;7.50;4.30;;;;;;;22.41;40.91;100899.94;108065;1259;72836;-67
2023/09/05 00:02:45;;;;;;;11.50;4.50;;;;;;;22.37;40.78;100900.38;108015;1259;61752;-67
2023/09/05 00:05:12;;;;;;;8.10;4.60;;;;;;;22.32;41.01;100899.86;108052;1254;60484;-66
2023/09/05 00:07:40;;;;;;;6.90;4.30;;;;;;;22.16;41.17;100903.72;107989;1253;73840;-65
2023/09/05 00:10:11;;;;;;;7.00;3.90;;;;;;;22.02;41.35;100903.64;108009;1254;69147;-66
2023/09/05 00:12:40;;;;;;;7.90;4.60;;;;;;;21.88;41.57;100900.23;107971;1253;71461;-66
2023/09/05 00:18:11;;;;;;;10.00;4.50;;;;;;;20.10;45.76;100914.28;104745;1290;600763;-67
2023/09/05 00:20:37;;;;;;;9.50;4.50;;;;;;;21.15;43.48;100914.58;107264;1266;59215;-67
2023/09/05 00:23:04;;;;;;;8.70;4.60;;;;;;;21.16;43.40;100916.13;107268;1266;59668;-66
2023/09/05 00:25:32;;;;;;;7.50;4.20;;;;;;;21.20;43.42;100915.70;107372;1265;59109;-67
2023/09/05 00:28:03;;;;;;;7.40;4.40;;;;;;;21.23;43.37;100912.64;107434;1266;71007;-66
2023/09/05 00:30:31;;;;;;;9.00;4.60;;;;;;;21.43;43.04;100917.47;107169;1263;192105;-66
2023/09/05 00:32:57;;;;;;;7.60;4.50;;;;;;;21.42;42.92;100919.39;107443;1264;61761;-66
2023/09/05 00:35:24;;;;;;;9.20;4.30;;;;;;;21.30;43.23;100919.43;107442;1263;59262;-66
2023/09/05 00:37:53;;;;;;;8.30;4.30;;;;;;;21.40;43.11;100917.68;107468;1263;72057;-68
2023/09/05 00:40:20;;;;;;;12.20;4.40;;;;;;;21.39;42.96;100915.27;107543;1267;70697;-66
2023/09/05 00:42:47;;;;;;;8.70;4.00;;;;;;;21.27;43.26;100919.88;107483;1263;72646;-66
2023/09/05 00:45:13;;;;;;;12.30;4.20;;;;;;;21.31;43.31;100919.94;107485;1264;60787;-67
2023/09/05 00:47:40;;;;;;;7.60;4.00;;;;;;;21.33;43.08;100927.27;107583;1263;59422;-68
2023/09/05 00:50:07;;;;;;;8.10;3.80;;;;;;;21.27;43.22;100928.28;107429;1263;72872;-66
2023/09/05 00:52:36;;;;;;;7.20;3.90;;;;;;;21.36;43.56;100926.73;107505;1264;70322;-68
2023/09/05 00:55:03;;;;;;;8.70;4.50;;;;;;;21.29;43.34;100922.58;107349;1263;72650;-65
2023/09/05 00:57:30;;;;;;;7.60;4.40;;;;;;;21.46;43.05;100919.27;107390;1261;60597;-66
2023/09/05 00:59:56;;;;;;;7.60;4.40;;;;;;;21.31;43.28;100922.79;107391;1263;59603;-66
2023/09/05 01:02:23;;;;;;;5.90;3.70;;;;;;;21.20;43.53;100931.40;107450;1262;73107;-66
2023/09/05 01:04:50;;;;;;;6.00;3.60;;;;;;;21.09;43.60;100932.13;107451;1263;69161;-67
2023/09/05 01:07:26;;;;;;;7.90;4.30;;;;;;;21.05;43.84;100935.67;107427;1263;73065;-67
2023/09/05 01:10:17;;;;;;;7.90;4.40;;;;;;;20.99;43.84;100939.45;107947;1257;60622;-67
2023/09/05 01:12:44;;;;;;;7.60;4.20;;;;;;;20.81;44.15;100938.91;107871;1257;60331;-66
2023/09/05 01:15:10;;;;;;;5.50;3.60;;;;;;;20.72;44.33;100939.64;108288;1253;59090;-66
2023/09/05 01:17:37;;;;;;;6.40;4.10;;;;;;;20.82;44.13;100936.52;108174;1253;70102;-67
2023/09/05 01:20:05;;;;;;;7.50;4.50;;;;;;;20.81;44.26;100935.65;108200;1253;72994;-67
2023/09/05 01:22:49;;;;;;;8.50;4.50;;;;;;;20.86;44.22;100938.89;108211;1254;60656;-66
2023/09/05 01:25:16;;;;;;;11.20;4.60;;;;;;;20.84;44.19;100933.70;108232;1253;59434;-67
2023/09/05 01:27:43;;;;;;;9.60;4.00;;;;;;;20.74;44.40;100936.80;108099;1253;73044;-66
2023/09/05 01:30:09;;;;;;;8.20;4.00;;;;;;;20.69;44.31;100936.83;108140;1253;69109;-65
2023/09/05 01:32:37;;;;;;;9.50;4.30;;;;;;;20.76;44.32;100937.05;108043;1259;73147;-66
2023/09/05 01:35:04;;;;;;;6.60;4.20;;;;;;;20.81;44.14;100934.58;108176;1253;61795;-66
2023/09/05 01:37:31;;;;;;;8.30;4.10;;;;;;;20.74;44.08;100937.58;108116;1253;60058;-66
2023/09/05 01:39:58;;;;;;;7.30;4.30;;;;;;;20.72;44.15;100934.46;108058;1254;73581;-66
2023/09/05 01:42:24;;;;;;;6.00;4.10;;;;;;;20.79;44.05;100933.83;108193;1255;70346;-66
2023/09/05 01:44:51;;;;;;;8.30;4.30;;;;;;;20.82;44.16;100938.61;108160;1253;72760;-67
2023/09/05 01:47:17;;;;;;;9.10;4.20;;;;;;;20.72;44.22;100939.27;108209;1253;59074;-67
2023/09/05 01:49:44;;;;;;;7.00;4.20;;;;;;;20.69;44.09;100946.05;108151;1253;59478;-67
2023/09/05 01:52:12;;;;;;;7.80;4.00;;;;;;;20.60;44.35;100945.96;108038;1253;59630;-67
2023/09/05 01:54:39;;;;;;;8.50;4.60;;;;;;;20.56;44.51;100942.69;108039;1259;70125;-67
2023/09/05 01:57:06;;;;;;;8.50;4.40;;;;;;;20.39;44.91;100943.40;108135;1253;71291;-67
2023/09/05 01:59:33;;;;;;;9.50;4.40;;;;;;;20.30;45.14;100944.50;108008;1253;59496;-67
2023/09/05 02:01:59;;;;;;;9.50;4.50;;;;;;;20.15;45.65;100944.75;108067;1254;59607;-65
2023/09/05 02:04:26;;;;;;;8.30;4.10;;;;;;;20.06;45.72;100942.68;108181;1253;72758;-66
2023/09/05 02:06:52;;;;;;;10.60;4.60;;;;;;;19.96;45.90;100941.74;108163;1254;71181;-67
2023/09/05 02:09:19;;;;;;;7.90;4.50;;;;;;;19.87;46.12;100942.78;108077;1253;59520;-66
2023/09/05 02:11:45;;;;;;;6.10;4.20;;;;;;;20.03;45.78;100942.15;108162;1254;60062;-65
2023/09/05 02:14:12;;;;;;;9.30;4.50;;;;;;;20.09;45.63;100941.56;108090;1254;59627;-66
2023/09/05 02:16:39;;;;;;;7.60;4.00;;;;;;;20.14;45.64;100944.99;108090;1254;73196;-67
2023/09/05 02:19:05;;;;;;;6.70;4.20;;;;;;;20.17;45.59;100944.83;108123;1257;68826;-67
2023/09/05 02:21:32;;;;;;;8.60;4.60;;;;;;;20.10;45.78;100948.47;108102;1253;72445;-67
2023/09/05 02:23:59;;;;;;;6.90;4.30;;;;;;;20.01;45.97;100949.38;108148;1257;61776;-65
2023/09/05 02:26:26;;;;;;;6.60;4.50;;;;;;;19.94;46.06;100950.20;108098;1254;59496;-66
2023/09/05 02:28:52;;;;;;;8.40;4.60;;;;;;;19.89;46.19;100948.52;108200;1255;72811;-68
2023/09/05 02:31:19;;;;;;;7.60;4.30;;;;;;;19.91;46.04;100947.17;108107;1254;70205;-67
2023/09/05 02:33:46;;;;;;;8.90;4.30;;;;;;;20.09;45.94;100951.94;108018;1255;72602;-67
2023/09/05 02:36:17;;;;;;;7.20;3.90;;;;;;;20.14;45.68;100948.56;108148;1253;61868;-66
2023/09/05 02:38:44;;;;;;;11.00;4.70;;;;;;;19.91;46.09;100950.18;108117;1255;59525;-66
2023/09/05 02:41:14;;;;;;;9.10;4.60;;;;;;;19.81;46.36;100951.86;108110;1254;73082;-67
2023/09/05 02:43:40;;;;;;;7.30;4.30;;;;;;;19.76;46.43;100951.17;108109;1254;70160;-67
2023/09/05 02:46:08;;;;;;;7.20;4.40;;;;;;;19.59;46.75;100955.91;108099;1255;72434;-68
2023/09/05 02:48:39;;;;;;;9.20;4.90;;;;;;;19.65;46.64;100957.86;108203;1255;61740;-68
2023/09/05 02:51:07;;;;;;;9.00;3.90;;;;;;;19.61;46.80;100956.49;108121;1255;59615;-66
2023/09/05 02:53:33;;;;;;;6.60;4.30;;;;;;;19.48;47.15;100960.65;108146;1257;71604;-68
2023/09/05 02:56:00;;;;;;;9.60;4.60;;;;;;;19.23;47.58;100964.16;108149;1257;70448;-67
2023/09/05 02:58:28;;;;;;;10.90;4.20;;;;;;;19.08;47.96;100963.10;108131;1257;59641;-67
2023/09/05 03:01:02;;;;;;;9.60;5.00;;;;;;;19.11;47.90;100964.86;108171;1257;60608;-66
2023/09/05 03:03:28;;;;;;;7.90;4.50;;;;;;;19.13;47.80;100966.70;108160;1254;60207;-66
2023/09/05 03:05:55;;;;;;;10.80;4.40;;;;;;;19.09;47.89;100968.34;108167;1254;73299;-66
2023/09/05 03:08:22;;;;;;;13.00;4.60;;;;;;;19.17;47.84;100965.92;108183;1257;70810;-67
2023/09/05 03:10:51;;;;;;;7.70;4.40;;;;;;;19.07;47.94;100970.77;108077;1259;72510;-66
2023/09/05 03:13:18;;;;;;;8.00;4.40;;;;;;;19.07;48.19;100969.56;108033;1254;62042;-66
2023/09/05 03:15:44;;;;;;;16.20;5.10;;;;;;;19.18;47.99;100972.27;108115;1254;60294;-67
2023/09/05 03:18:11;;;;;;;9.10;4.60;;;;;;;19.21;47.89;100974.76;108114;1255;72799;-68
2023/09/05 03:20:38;;;;;;;8.10;4.50;;;;;;;19.29;47.71;100973.73;108157;1253;69052;-67
2023/09/05 03:23:04;;;;;;;8.80;4.50;;;;;;;19.21;47.75;100976.93;108198;1255;72711;-65
2023/09/05 03:25:31;;;;;;;6.50;4.00;;;;;;;19.20;47.84;100980.37;108153;1255;61775;-66
2023/09/05 03:27:57;;;;;;;8.80;4.60;;;;;;;19.26;47.77;100980.49;108064;1254;59496;-67
2023/09/05 03:30:24;;;;;;;10.30;4.20;;;;;;;19.50;47.41;100985.66;108093;1254;72854;-67
2023/09/05 03:32:51;;;;;;;8.80;4.50;;;;;;;19.60;47.27;100987.37;108076;1256;70176;-67
2023/09/05 03:35:17;;;;;;;8.00;4.50;;;;;;;19.77;46.86;100984.56;107891;1254;70422;-67
2023/09/05 03:37:44;;;;;;;6.90;3.90;;;;;;;19.86;46.55;100979.70;108083;1254;61763;-67
2023/09/05 03:40:12;;;;;;;14.20;5.00;;;;;;;20.01;46.22;100980.04;108120;1256;60037;-67
2023/09/05 03:42:40;;;;;;;7.80;4.50;;;;;;;19.97;46.25;100981.21;108043;1258;72452;-68
2023/09/05 03:45:08;;;;;;;10.90;4.80;;;;;;;20.05;46.26;100980.49;108119;1255;68730;-65
2023/09/05 03:47:35;;;;;;;7.50;5.00;;;;;;;20.04;46.29;100978.78;108129;1254;72538;-66
2023/09/05 03:50:14;;;;;;;8.30;4.50;;;;;;;20.05;46.15;100979.61;108197;1254;62048;-66
2023/09/05 03:52:41;;;;;;;9.10;5.00;;;;;;;19.82;46.80;100981.25;108021;1253;60017;-67
2023/09/05 03:55:08;;;;;;;13.60;4.80;;;;;;;19.88;46.82;100983.33;108095;1257;59488;-67
2023/09/05 03:57:34;;;;;;;8.50;4.60;;;;;;;20.12;46.74;100984.33;108123;1254;68973;-67
2023/09/05 04:00:03;;;;;;;9.20;4.40;;;;;;;20.72;46.16;100983.54;108017;1253;73128;-67
2023/09/05 04:02:39;;;;;;;9.50;4.70;;;;;;;21.19;45.27;100983.23;108049;1257;61820;-67
2023/09/05 04:05:07;;;;;;;8.90;4.40;;;;;;;21.46;45.00;100984.64;108030;1254;60022;-67
2023/09/05 04:07:34;;;;;;;6.10;4.50;;;;;;;21.98;44.11;100983.67;108068;1253;73138;-67
2023/09/05 04:10:00;;;;;;;6.20;3.80;;;;;;;22.39;43.25;100987.42;108078;1254;70130;-67
2023/09/05 04:12:27;;;;;;;9.20;4.30;;;;;;;22.61;43.30;100989.52;108056;1254;72948;-67
2023/09/05 04:14:54;;;;;;;8.30;4.40;;;;;;;23.14;41.96;100993.98;108094;1255;62005;-68
2023/09/05 04:17:21;;;;;;;7.00;4.20;;;;;;;23.32;41.33;100989.96;108088;1253;60600;-67
2023/09/05 04:19:52;;;;;;;8.10;4.00;;;;;;;24.03;40.47;100986.38;108152;1254;71870;-68
2023/09/05 04:22:19;;;;;;;7.60;3.80;;;;;;;24.71;38.96;100988.58;108220;1254;69211;-66
2023/09/05 04:24:46;;;;;;;7.40;3.40;;;;;;;25.34;37.87;100993.36;108074;1253;72643;-68
2023/09/05 04:27:12;;;;;;;7.40;3.80;;;;;;;25.59;37.44;101000.41;107968;1254;60485;-66
2023/09/05 04:29:39;;;;;;;8.20;3.30;;;;;;;26.14;36.70;100997.44;108022;1254;60517;-68
2023/09/05 04:32:06;;;;;;;9.20;3.70;;;;;;;26.73;35.79;100997.11;108048;1254;60347;-68
2023/09/05 04:34:34;;;;;;;11.00;4.10;;;;;;;27.17;34.86;100998.85;107977;1255;70619;-68
2023/09/05 04:37:02;;;;;;;10.70;3.60;;;;;;;27.70;33.74;100999.66;107977;1253;71403;-68
2023/09/05 04:39:29;;;;;;;9.10;3.60;;;;;;;27.74;33.69;100997.25;107924;1254;60328;-68
2023/09/05 04:41:55;;;;;;;6.90;3.60;;;;;;;28.05;33.09;100999.77;107993;1254;60432;-68
2023/09/05 04:44:22;;;;;;;9.20;3.30;;;;;;;28.41;32.62;100994.96;108020;1254;60350;-68
2023/09/05 04:46:48;;;;;;;11.90;3.70;;;;;;;28.67;31.94;100992.61;108079;1256;60465;-68
2023/09/05 04:49:15;;;;;;;7.00;3.30;;;;;;;28.90;31.73;100991.90;108022;1253;60445;-68
2023/09/05 04:51:41;;;;;;;6.60;3.40;;;;;;;29.21;31.31;100991.51;108086;1254;60330;-69
2023/09/05 04:54:08;;;;;;;8.30;3.40;;;;;;;29.61;30.35;100989.50;108067;1257;60407;-68
2023/09/05 04:56:35;;;;;;;6.40;3.10;;;;;;;30.19;29.54;100986.39;108065;1254;73626;-69
2023/09/05 04:59:01;;;;;;;7.30;3.50;;;;;;;30.58;29.24;100983.41;108061;1254;70276;-68
2023/09/05 05:01:28;;;;;;;5.70;3.40;;;;;;;30.91;29.05;100983.80;108171;1253;72750;-68
2023/09/05 05:03:54;;;;;;;12.10;3.50;;;;;;;31.37;27.99;100983.83;108088;1254;60313;-66
2023/09/05 05:06:22;;;;;;;8.40;3.80;;;;;;;31.25;27.45;100976.95;108129;1253;60313;-68
2023/09/05 05:08:49;;;;;;;7.50;3.40;;;;;;;31.13;27.67;100976.13;108068;1254;73930;-68
2023/09/05 05:11:15;;;;;;;9.80;3.60;;;;;;;31.72;27.23;100976.09;108093;1254;59089;-68
2023/09/05 05:13:42;;;;;;;11.30;3.70;;;;;;;31.80;26.95;100974.45;108533;1253;59142;-69
2023/09/05 05:16:09;;;;;;;12.50;3.80;;;;;;;31.86;26.67;100977.05;108654;1253;58818;-69
2023/09/05 05:18:37;;;;;;;8.20;3.60;;;;;;;31.95;26.26;100973.51;108654;1255;60331;-68
2023/09/05 05:21:04;;;;;;;10.20;2.90;;;;;;;32.15;26.40;100971.62;108561;1254;60372;-69
2023/09/05 05:23:31;;;;;;;7.40;3.50;;;;;;;32.60;26.02;100970.30;108281;1254;69125;-68
2023/09/05 05:25:59;;;;;;;8.20;3.30;;;;;;;32.94;25.39;100969.48;108072;1254;60364;-71
2023/09/05 05:28:25;;;;;;;7.50;3.20;;;;;;;33.12;25.25;100967.10;108074;1254;60150;-68
2023/09/05 05:30:53;;;;;;;12.90;3.20;;;;;;;33.40;24.85;100964.69;108164;1254;60064;-69
2023/09/05 05:33:19;;;;;;;7.00;3.40;;;;;;;33.58;24.52;100963.81;108142;1253;65070;-70
2023/09/05 05:35:52;;;;;;;12.60;3.40;;;;;;;33.72;24.46;100965.70;108118;1254;60311;-68
2023/09/05 05:38:18;;;;;;;7.10;3.40;;;;;;;34.03;24.15;100970.27;108110;1253;62677;-68
2023/09/05 05:40:45;;;;;;;14.50;3.20;;;;;;;34.31;23.95;100975.02;108082;1257;60148;-69
2023/09/05 05:43:11;;;;;;;4.80;2.90;;;;;;;34.58;23.61;100977.67;108137;1254;59562;-69
2023/09/05 05:45:37;;;;;;;10.20;3.50;;;;;;;34.94;23.28;100981.33;108160;1254;60303;-70
2023/09/05 05:48:07;;;;;;;6.50;3.20;;;;;;;35.38;22.88;100983.70;108111;1254;60422;-70
2023/09/05 05:50:34;;;;;;;5.60;3.00;;;;;;;35.46;22.74;100983.59;108127;1254;64090;-68
2023/09/05 05:53:01;;;;;;;6.20;2.90;;;;;;;35.60;22.51;100980.53;107919;1256;60355;-69
2023/09/05 05:55:27;;;;;;;5.70;3.00;;;;;;;35.90;22.40;100983.29;108029;1254;60418;-69
2023/09/05 05:57:55;;;;;;;9.20;2.50;;;;;;;36.44;21.75;100981.14;108057;1253;64935;-69
2023/09/05 06:00:25;;;;;;;6.60;2.70;;;;;;;36.73;21.40;100983.56;108039;1254;60130;-70
2023/09/05 06:02:51;;;;;;;6.10;2.50;;;;;;;36.96;21.23;100984.17;108020;1254;64086;-69
2023/09/05 06:05:19;;;;;;;7.60;2.50;;;;;;;37.24;20.93;100988.68;108003;1254;60342;-69
2023/09/05 06:07:46;;;;;;;3.30;2.50;;;;;;;37.59;20.72;100984.98;108064;1254;58573;-68
2023/09/05 06:10:12;;;;;;;6.20;2.70;;;;;;;38.00;20.29;100990.09;108065;1254;64915;-69
2023/09/05 06:12:39;;;;;;;6.10;2.60;;;;;;;37.97;20.14;100989.17;108066;1254;61686;-69
2023/09/05 06:15:07;;;;;;;4.50;2.60;;;;;;;37.82;20.26;100986.25;108029;1253;62723;-68
2023/09/05 06:17:34;;;;;;;3.60;2.50;;;;;;;38.10;20.20;100991.59;108065;1253;59117;-69
2023/09/05 06:20:01;;;;;;;3.70;2.30;;;;;;;38.31;20.17;100990.98;108049;1257;60860;-68
2023/09/05 06:22:27;;;;;;;3.40;2.30;;;;;;;38.62;19.63;100987.33;108063;1254;64913;-69
2023/09/05 06:24:54;;;;;;;3.60;2.10;;;;;;;38.71;19.50;100984.56;108078;1254;61743;-68
2023/09/05 06:27:20;;;;;;;7.10;2.70;;;;;;;38.82;19.48;100983.86;108029;1254;63859;-70
2023/09/05 06:29:47;;;;;;;6.20;2.80;;;;;;;38.90;19.16;100985.93;107985;1254;60541;-68
2023/09/05 06:32:13;;;;;;;3.20;2.20;;;;;;;39.14;19.00;100987.53;108007;1253;60304;-69
2023/09/05 06:34:41;;;;;;;3.20;2.40;;;;;;;39.01;19.32;100990.53;108024;1254;65208;-70
2023/09/05 06:37:08;;;;;;;4.10;2.40;;;;;;;39.01;18.94;100986.68;108026;1254;61715;-69
2023/09/05 06:39:35;;;;;;;2.50;1.90;;;;;;;39.34;18.90;100983.28;107995;1257;63858;-69
2023/09/05 06:42:01;;;;;;;3.10;2.10;;;;;;;39.18;18.89;100982.15;108019;1254;60312;-69
2023/09/05 06:44:32;;;;;;;7.40;2.30;;;;;;;39.49;18.95;100977.80;107989;1254;60435;-69
2023/09/05 06:46:58;;;;;;;4.20;2.20;;;;;;;39.55;18.68;100974.92;107974;1254;65190;-68
2023/09/05 06:49:25;;;;;;;3.30;2.00;;;;;;;39.53;18.80;100976.89;108050;1253;61472;-68
2023/09/05 06:51:52;;;;;;;5.00;2.20;;;;;;;39.63;18.93;100975.33;108036;1253;64251;-70
2023/09/05 06:54:18;;;;;;;4.50;2.20;;;;;;;39.85;18.71;100976.34;108034;1254;60309;-68
2023/09/05 06:56:45;;;;;;;5.10;2.10;;;;;;;39.63;18.07;100973.30;108078;1254;60427;-67
2023/09/05 06:59:17;;;;;;;4.10;2.20;;;;;;;39.08;18.34;100970.45;108092;1254;59721;-69
2023/09/05 07:01:44;;;;;;;3.00;2.00;;;;;;;38.72;18.60;100976.21;108110;1254;61474;-69
2023/09/05 07:04:11;;;;;;;3.20;2.10;;;;;;;38.35;18.93;100978.96;108070;1253;63702;-69
2023/09/05 07:06:39;;;;;;;3.00;2.00;;;;;;;38.31;19.36;100979.31;108050;1253;60319;-69
2023/09/05 07:09:06;;;;;;;2.80;1.90;;;;;;;38.26;18.98;100982.00;108074;1254;60414;-69
2023/09/05 07:11:33;;;;;;;4.80;1.90;;;;;;;38.17;19.21;100976.17;108105;1257;63743;-70
2023/09/05 07:14:00;;;;;;;8.40;2.00;;;;;;;38.58;18.98;100975.58;108069;1253;70577;-69
2023/09/05 07:16:28;;;;;;;2.60;1.90;;;;;;;38.85;18.85;100968.76;108031;1254;63904;-68
2023/09/05 07:18:54;;;;;;;5.20;2.00;;;;;;;39.07;18.56;100963.22;108051;1253;60275;-68
2023/09/05 07:21:21;;;;;;;5.90;1.80;;;;;;;39.45;18.41;100963.73;108080;1253;60421;-68
2023/09/05 07:23:48;;;;;;;2.70;2.00;;;;;;;39.80;18.04;100966.81;108052;1254;65076;-68
2023/09/05 07:26:14;;;;;;;4.80;2.10;;;;;;;39.79;17.62;100964.63;107993;1254;61539;-69
2023/09/05 07:28:41;;;;;;;3.20;1.90;;;;;;;39.42;17.60;100963.29;107998;1254;63856;-70
2023/09/05 07:31:08;;;;;;;8.40;1.90;;;;;;;39.11;18.03;100965.55;107951;1254;60342;-69
2023/09/05 07:33:35;;;;;;;2.10;1.60;;;;;;;39.11;17.99;100965.66;108018;1254;60423;-68
2023/09/05 07:36:01;;;;;;;3.40;1.80;;;;;;;39.24;18.04;100964.34;108085;1253;65123;-68
2023/09/05 07:38:28;;;;;;;4.30;2.10;;;;;;;39.51;17.79;100965.38;108138;1253;61568;-68
2023/09/05 07:41:04;;;;;;;5.30;2.30;;;;;;;39.30;17.64;100970.91;108129;1257;63863;-69
2023/09/05 07:43:33;;;;;;;5.90;2.00;;;;;;;38.87;17.81;100971.11;108199;1253;60412;-69
2023/09/05 07:46:00;;;;;;;3.60;2.30;;;;;;;38.41;18.11;100972.04;108111;1253;60428;-67
2023/09/05 07:48:26;;;;;;;3.30;2.40;;;;;;;38.12;18.55;100971.75;108105;1253;65202;-69
2023/09/05 07:51:04;;;;;;;3.10;2.20;;;;;;;38.30;18.60;100971.63;108132;1253;60417;-69
2023/09/05 07:53:36;;;;;;;5.80;2.20;;;;;;;38.31;18.16;100968.57;107926;1253;62426;-69
2023/09/05 07:56:03;;;;;;;4.50;2.20;;;;;;;38.61;17.95;100966.96;108221;1253;60305;-68
2023/09/05 07:58:30;;;;;;;4.90;2.40;;;;;;;38.64;18.02;100966.05;108071;1253;60194;-69
2023/09/05 08:00:57;;;;;;;5.20;2.40;;;;;;;38.43;17.71;100970.88;108052;1257;65170;-69
2023/09/05 08:03:26;;;;;;;3.80;2.00;;;;;;;38.33;18.29;100968.60;108136;1253;61415;-69
2023/09/05 08:05:53;;;;;;;3.00;1.80;;;;;;;38.54;17.97;100967.39;108090;1253;63840;-69
2023/09/05 08:08:20;;;;;;;4.60;2.00;;;;;;;38.96;17.85;100962.80;108145;1253;60401;-70
2023/09/05 08:10:47;;;;;;;3.60;2.00;;;;;;;39.33;17.50;100956.39;108153;1253;60409;-67
2023/09/05 08:13:16;;;;;;;5.70;1.90;;;;;;;39.42;16.90;100964.70;108140;1253;65296;-68
2023/09/05 08:15:43;;;;;;;4.60;2.10;;;;;;;39.12;17.01;100966.41;108160;1252;60264;-69
2023/09/05 08:18:11;;;;;;;5.00;1.90;;;;;;;39.09;16.75;100968.52;108139;1254;63856;-70
2023/09/05 08:20:39;;;;;;;2.40;1.90;;;;;;;39.30;16.67;100964.80;108126;1253;60166;-68
2023/09/05 08:23:06;;;;;;;5.40;2.10;;;;;;;39.63;16.24;100965.91;108128;1253;60335;-69
2023/09/05 08:25:32;;;;;;;3.00;1.80;;;;;;;39.37;16.42;100960.79;108075;1253;73846;-69
2023/09/05 08:27:59;;;;;;;4.30;2.10;;;;;;;39.10;16.78;100960.38;108077;1253;60410;-67
2023/09/05 08:30:27;;;;;;;5.10;2.00;;;;;;;38.75;16.72;100966.95;108054;1253;63900;-68
2023/09/05 08:32:55;;;;;;;2.70;1.80;;;;;;;38.56;17.06;100965.42;108067;1253;60325;-69
2023/09/05 08:35:22;;;;;;;3.00;2.00;;;;;;;38.65;17.46;100961.27;108173;1253;60326;-68
2023/09/05 08:37:48;;;;;;;4.60;2.10;;;;;;;39.01;16.88;100957.88;108094;1253;60418;-70
2023/09/05 08:40:15;;;;;;;4.50;2.00;;;;;;;39.13;16.64;100959.20;108077;1252;61724;-69
2023/09/05 08:42:47;;;;;;;4.50;2.20;;;;;;;39.15;16.35;100952.17;108122;1253;64006;-69
2023/09/05 08:45:15;;;;;;;4.20;2.50;;;;;;;38.75;16.14;100960.09;108042;1254;60302;-68
2023/09/05 08:47:41;;;;;;;7.00;3.10;;;;;;;38.52;16.36;100961.11;108069;1253;60281;-70
2023/09/05 08:50:09;;;;;;;11.50;4.60;;;;;;;38.57;16.37;100966.32;108113;1254;65342;-68
2023/09/05 08:52:37;;;;;;;7.00;3.40;;;;;;;38.65;15.88;100970.76;108114;1253;61656;-69
2023/09/05 08:55:04;;;;;;;5.10;3.90;;;;;;;38.66;15.76;100966.27;108170;1253;64068;-69
2023/09/05 08:57:31;;;;;;;7.00;3.20;;;;;;;38.72;15.86;100961.30;108068;1252;60303;-68
2023/09/05 08:59:58;;;;;;;14.00;3.40;;;;;;;38.74;16.05;100964.90;108063;1253;60269;-69
2023/09/05 09:02:25;;;;;;;3.30;2.40;;;;;;;39.02;15.95;100963.89;108051;1253;65047;-69
2023/09/05 09:04:53;;;;;;;5.40;3.10;;;;;;;39.42;15.81;100962.52;108151;1256;62081;-69
2023/09/05 09:07:26;;;;;;;7.30;2.80;;;;;;;39.69;15.75;100962.30;108155;1253;63716;-69
2023/09/05 09:09:59;;;;;;;3.60;2.50;;;;;;;39.87;15.28;100968.73;108103;1253;58997;-69
2023/09/05 09:12:30;;;;;;;4.00;2.10;;;;;;;40.31;14.95;100963.27;108084;1253;59681;-68
2023/09/05 09:15:10;;;;;;;4.40;2.30;;;;;;;40.43;14.55;100961.48;108093;1254;64028;-70
2023/09/05 09:17:39;;;;;;;3.30;2.30;;;;;;;40.45;14.48;100956.33;108107;1252;61703;-69
2023/09/05 09:20:09;;;;;;;4.50;2.10;;;;;;;40.43;14.27;100955.51;108129;1253;64106;-69
2023/09/05 09:22:36;;;;;;;4.70;2.20;;;;;;;40.43;13.60;100953.23;108174;1253;59220;-69
2023/09/05 09:25:10;;;;;;;3.60;2.20;;;;;;;40.52;13.69;100949.72;108016;1254;60320;-69
2023/09/05 09:27:38;;;;;;;8.50;2.60;;;;;;;40.52;13.85;100949.94;108104;1253;65128;-69
2023/09/05 09:30:06;;;;;;;5.20;2.30;;;;;;;40.07;13.84;100956.19;108166;1253;61651;-68
2023/09/05 09:32:33;;;;;;;4.70;2.10;;;;;;;39.77;13.94;100958.52;108085;1253;63775;-69
2023/09/05 09:35:00;;;;;;;2.70;2.00;;;;;;;39.62;13.75;100956.02;108077;1254;60844;-69
2023/09/05 09:37:27;;;;;;;5.40;2.20;;;;;;;39.65;13.65;100953.45;108106;1254;60604;-68
2023/09/05 09:40:01;;;;;;;5.80;2.00;;;;;;;39.80;13.40;100949.71;108119;1253;65040;-68
2023/09/05 09:42:28;;;;;;;3.60;2.40;;;;;;;39.39;13.79;100944.21;108146;1253;61800;-69
2023/09/05 09:44:54;;;;;;;4.70;2.30;;;;;;;38.88;13.82;100945.40;108096;1253;63841;-69
2023/09/05 09:47:23;;;;;;;3.90;2.30;;;;;;;38.59;14.04;100942.27;108148;1253;59557;-69
2023/09/05 09:49:51;;;;;;;6.60;2.50;;;;;;;38.65;14.27;100940.91;108149;1253;60313;-69
2023/09/05 09:52:21;;;;;;;5.10;2.30;;;;;;;38.90;13.85;100944.89;108214;1252;65000;-69
2023/09/05 09:54:51;;;;;;;3.10;2.30;;;;;;;39.05;13.80;100945.58;108105;1253;61537;-68
2023/09/05 09:57:38;;;;;;;4.40;2.40;;;;;;;39.21;14.15;100939.66;108051;1253;71314;-70
2023/09/05 10:00:17;;;;;;;4.60;2.50;;;;;;;39.70;13.67;100939.61;108072;1253;60450;-69
2023/09/05 10:02:46;;;;;;;5.90;2.30;;;;;;;39.84;13.15;100941.80;108112;1254;59273;-69
2023/09/05 10:05:15;;;;;;;3.90;2.60;;;;;;;39.72;13.03;100936.70;108117;1253;65046;-69
2023/09/05 10:07:43;;;;;;;4.10;2.30;;;;;;;39.40;12.98;100934.64;108096;1253;61534;-69
2023/09/05 10:10:16;;;;;;;10.10;2.70;;;;;;;38.66;12.95;100936.34;108091;1253;64069;-67
2023/09/05 10:12:44;;;;;;;3.90;2.40;;;;;;;38.23;13.44;100932.77;108112;1253;60388;-69
2023/09/05 10:15:13;;;;;;;3.20;2.40;;;;;;;38.44;14.05;100924.94;108133;1253;60628;-68
2023/09/05 10:17:41;;;;;;;7.40;2.90;;;;;;;38.96;13.92;100916.49;108130;1253;65498;-67
2023/09/05 10:20:09;;;;;;;7.00;2.60;;;;;;;38.88;13.45;100916.85;108036;1253;60992;-69
2023/09/05 10:22:39;;;;;;;5.50;2.50;;;;;;;38.45;13.73;100914.19;108176;1253;64248;-69
2023/09/05 10:25:06;;;;;;;5.80;2.60;;;;;;;37.98;14.02;100915.06;108050;1253;60401;-69
2023/09/05 10:27:33;;;;;;;12.60;3.20;;;;;;;37.19;14.50;100909.02;108042;1253;60338;-69
2023/09/05 10:30:00;;;;;;;11.60;3.10;;;;;;;36.72;14.81;100909.30;107922;1253;65492;-70
2023/09/05 10:32:26;;;;;;;12.30;3.20;;;;;;;36.44;15.05;100912.73;107965;1253;61775;-69
2023/09/05 10:34:55;;;;;;;5.80;3.20;;;;;;;36.87;14.98;100912.38;108140;1253;64119;-69
2023/09/05 10:37:26;;;;;;;10.10;3.50;;;;;;;37.29;14.80;100908.06;108106;1253;58859;-69
2023/09/05 10:39:55;;;;;;;6.60;3.10;;;;;;;37.51;14.89;100910.42;108112;1253;59343;-68
2023/09/05 10:42:29;;;;;;;5.10;3.10;;;;;;;37.63;14.70;100906.77;108098;1253;64064;-67
2023/09/05 10:44:55;;;;;;;11.20;4.00;;;;;;;37.57;14.62;100900.77;108139;1255;61590;-68
2023/09/05 10:47:23;;;;;;;5.00;3.00;;;;;;;37.52;14.47;100894.87;108084;1253;64478;-69
2023/09/05 10:49:56;;;;;;;5.60;3.00;;;;;;;37.35;14.37;100894.52;108170;1256;60328;-70
2023/09/05 10:52:22;;;;;;;4.30;2.70;;;;;;;37.51;14.71;100896.31;108129;1253;60479;-69
2023/09/05 10:54:51;;;;;;;10.40;2.90;;;;;;;37.93;14.72;100895.92;108115;1253;64891;-69
2023/09/05 10:57:33;;;;;;;11.10;3.30;;;;;;;38.29;14.45;100894.98;108172;1253;61831;-69
2023/09/05 10:59:59;;;;;;;7.30;3.20;;;;;;;38.66;14.53;100890.91;108127;1253;63837;-69
2023/09/05 11:02:26;;;;;;;6.50;3.20;;;;;;;38.94;13.89;100891.16;108240;1253;58994;-69
2023/09/05 11:04:53;;;;;;;4.80;2.70;;;;;;;39.07;13.65;100890.56;108134;1253;60431;-68
2023/09/05 11:07:21;;;;;;;6.90;3.10;;;;;;;38.83;13.61;100886.65;108115;1253;65312;-69
2023/09/05 11:09:49;;;;;;;6.70;3.10;;;;;;;38.49;14.08;100889.52;108118;1253;60485;-69
2023/09/05 11:12:17;;;;;;;6.20;3.10;;;;;;;38.54;14.11;100891.98;108122;1253;64248;-69
2023/09/05 11:14:44;;;;;;;7.50;2.90;;;;;;;38.70;13.93;100892.30;108131;1253;59235;-69
2023/09/05 11:17:14;;;;;;;5.60;3.20;;;;;;;38.68;13.90;100889.77;108131;1253;60651;-69
2023/09/05 11:19:45;;;;;;;5.00;2.80;;;;;;;38.26;13.48;100895.27;108067;1253;65413;-70
2023/09/05 11:22:15;;;;;;;5.20;3.00;;;;;;;37.96;13.50;100890.61;108117;1253;61778;-69